sensor_id;sensor_type;location;lat;lon;timestamp;temperature;humidity
18690;DHT22;9782;52.930;15.562;2023-04-01T05:29:15;9.70;40.70
18690;DHT22;9782;52.930;15.562;2023-04-01T05:31:42;9.70;28.10
18690;DHT22;9782;52.930;15.562;2023-04-01T05:34:09;9.70;42.40
18690;DHT22;9782;52.930;15.562;2023-04-01T05:36:36;9.70;37.30
18690;DHT22;9782;52.930;15.562;2023-04-01T05:39:02;9.70;1.00
18690;DHT22;9782;52.930;15.562;2023-04-01T05:41:29;9.60;1.00
18690;DHT22;9782;52.930;15.562;2023-04-01T05:43:56;9.60;1.00
18690;DHT22;9782;52.930;15.562;2023-04-01T05:46:24;9.60;1.00
18690;DHT22;9782;52.930;15.562;2023-04-01T05:48:51;9.60;1.00
18690;DHT22;9782;52.930;15.562;2023-04-01T05:51:18;9.60;1.00
18690;DHT22;9782;52.930;15.562;2023-04-01T05:53:45;9.60;1.00
18690;DHT22;9782;52.930;15.562;2023-04-01T05:56:12;9.60;1.00
18690;DHT22;9782;52.930;15.562;2023-04-01T05:58:39;9.50;1.00
18690;DHT22;9782;52.930;15.562;2023-04-01T06:01:07;9.50;1.00
18690;DHT22;9782;52.930;15.562;2023-04-01T06:03:36;9.50;1.00
18690;DHT22;9782;52.930;15.562;2023-04-01T06:06:10;9.50;1.00
18690;DHT22;9782;52.930;15.562;2023-04-01T06:08:40;9.40;1.00
18690;DHT22;9782;52.930;15.562;2023-04-01T06:11:19;9.40;1.00
18690;DHT22;9782;52.930;15.562;2023-04-01T06:14:01;9.40;1.00
18690;DHT22;9782;52.930;15.562;2023-04-01T06:16:39;9.40;1.00
18690;DHT22;9782;52.930;15.562;2023-04-01T06:19:20;9.40;1.00
18690;DHT22;9782;52.930;15.562;2023-04-01T06:22:06;9.40;1.00
18690;DHT22;9782;52.930;15.562;2023-04-01T06:24:44;9.40;1.00
18690;DHT22;9782;52.930;15.562;2023-04-01T06:27:21;9.30;1.00
18690;DHT22;9782;52.930;15.562;2023-04-01T06:30:06;9.30;1.00
18690;DHT22;9782;52.930;15.562;2023-04-01T06:32:52;9.20;1.00
18690;DHT22;9782;52.930;15.562;2023-04-01T06:35:31;9.30;1.00
18690;DHT22;9782;52.930;15.562;2023-04-01T06:38:22;9.20;1.00
18690;DHT22;9782;52.930;15.562;2023-04-01T06:44:04;9.20;1.00
18690;DHT22;9782;52.930;15.562;2023-04-01T06:46:36;9.20;1.00
18690;DHT22;9782;52.930;15.562;2023-04-01T06:49:30;9.20;1.00
18690;DHT22;9782;52.930;15.562;2023-04-01T06:52:04;9.10;1.00
18690;DHT22;9782;52.930;15.562;2023-04-01T06:54:37;9.10;1.00
18690;DHT22;9782;52.930;15.562;2023-04-01T06:57:14;9.00;1.00
18690;DHT22;9782;52.930;15.562;2023-04-01T06:59:43;8.90;1.00
18690;DHT22;9782;52.930;15.562;2023-04-01T07:02:21;8.90;1.00
18690;DHT22;9782;52.930;15.562;2023-04-01T07:04:51;8.90;1.00
18690;DHT22;9782;52.930;15.562;2023-04-01T07:07:29;8.90;1.00
18690;DHT22;9782;52.930;15.562;2023-04-01T07:09:59;8.80;1.00
18690;DHT22;9782;52.930;15.562;2023-04-01T07:12:33;8.80;1.00
18690;DHT22;9782;52.930;15.562;2023-04-01T07:15:10;8.80;1.00
18690;DHT22;9782;52.930;15.562;2023-04-01T07:17:41;8.80;1.00
18690;DHT22;9782;52.930;15.562;2023-04-01T07:20:16;8.80;1.00
18690;DHT22;9782;52.930;15.562;2023-04-01T07:22:57;8.80;1.00
18690;DHT22;9782;52.930;15.562;2023-04-01T07:25:29;8.80;1.00
18690;DHT22;9782;52.930;15.562;2023-04-01T07:28:02;8.80;1.00
18690;DHT22;9782;52.930;15.562;2023-04-01T07:39:03;8.80;1.00
18690;DHT22;9782;52.930;15.562;2023-04-01T07:41:38;8.80;1.00
18690;DHT22;9782;52.930;15.562;2023-04-01T07:44:13;8.80;1.00
18690;DHT22;9782;52.930;15.562;2023-04-01T07:46:56;8.80;1.00
18690;DHT22;9782;52.930;15.562;2023-04-01T07:49:30;8.90;1.00
18690;DHT22;9782;52.930;15.562;2023-04-01T07:52:01;8.90;99.90
18690;DHT22;9782;52.930;15.562;2023-04-01T07:54:38;9.00;99.90
18690;DHT22;9782;52.930;15.562;2023-04-01T07:57:14;9.00;99.90
18690;DHT22;9782;52.930;15.562;2023-04-01T07:59:49;9.00;46.70
18690;DHT22;9782;52.930;15.562;2023-04-01T08:02:28;9.00;1.00
18690;DHT22;9782;52.930;15.562;2023-04-01T08:05:04;9.00;1.00
18690;DHT22;9782;52.930;15.562;2023-04-01T08:07:41;8.90;1.00
18690;DHT22;9782;52.930;15.562;2023-04-01T08:10:18;8.90;1.00
18690;DHT22;9782;52.930;15.562;2023-04-01T08:12:55;9.00;1.00
18690;DHT22;9782;52.930;15.562;2023-04-01T08:15:28;9.00;1.00
18690;DHT22;9782;52.930;15.562;2023-04-01T08:18:04;8.90;1.00
18690;DHT22;9782;52.930;15.562;2023-04-01T08:20:37;9.00;1.00
18690;DHT22;9782;52.930;15.562;2023-04-01T08:23:12;9.00;1.00
18690;DHT22;9782;52.930;15.562;2023-04-01T08:25:47;9.10;1.00
18690;DHT22;9782;52.930;15.562;2023-04-01T08:28:19;9.20;1.00
18690;DHT22;9782;52.930;15.562;2023-04-01T08:30:50;9.20;1.00
18690;DHT22;9782;52.930;15.562;2023-04-01T08:33:23;9.20;1.00
18690;DHT22;9782;52.930;15.562;2023-04-01T08:35:54;9.30;99.90
18690;DHT22;9782;52.930;15.562;2023-04-01T08:38:26;9.30;99.90
18690;DHT22;9782;52.930;15.562;2023-04-01T08:41:00;9.30;99.90
18690;DHT22;9782;52.930;15.562;2023-04-01T08:43:58;9.10;99.90
18690;DHT22;9782;52.930;15.562;2023-04-01T08:46:56;9.00;99.90
18690;DHT22;9782;52.930;15.562;2023-04-01T08:49:41;9.00;99.90
18690;DHT22;9782;52.930;15.562;2023-04-01T08:52:24;9.00;99.90
18690;DHT22;9782;52.930;15.562;2023-04-01T08:55:14;8.90;99.90
18690;DHT22;9782;52.930;15.562;2023-04-01T08:58:00;8.90;1.00
18690;DHT22;9782;52.930;15.562;2023-04-01T09:00:31;8.90;1.00
18690;DHT22;9782;52.930;15.562;2023-04-01T09:03:19;8.80;1.00
18690;DHT22;9782;52.930;15.562;2023-04-01T09:06:12;8.80;1.00
18690;DHT22;9782;52.930;15.562;2023-04-01T09:08:59;8.80;1.00
18690;DHT22;9782;52.930;15.562;2023-04-01T09:11:33;8.80;1.00
18690;DHT22;9782;52.930;15.562;2023-04-01T09:14:25;8.70;1.00
18690;DHT22;9782;52.930;15.562;2023-04-01T09:19:59;8.70;1.00
18690;DHT22;9782;52.930;15.562;2023-04-01T09:22:42;8.70;99.90
18690;DHT22;9782;52.930;15.562;2023-04-01T09:28:10;8.60;1.00
18690;DHT22;9782;52.930;15.562;2023-04-01T09:31:00;8.60;1.00
18690;DHT22;9782;52.930;15.562;2023-04-01T09:36:45;8.50;1.00
18690;DHT22;9782;52.930;15.562;2023-04-01T09:42:29;8.40;1.00
18690;DHT22;9782;52.930;15.562;2023-04-01T09:45:00;8.40;1.00
18690;DHT22;9782;52.930;15.562;2023-04-01T09:47:43;8.40;1.00
18690;DHT22;9782;52.930;15.562;2023-04-01T09:50:34;8.40;1.00
18690;DHT22;9782;52.930;15.562;2023-04-01T09:53:20;8.40;1.00
18690;DHT22;9782;52.930;15.562;2023-04-01T09:56:21;8.40;1.00
18690;DHT22;9782;52.930;15.562;2023-04-01T09:59:23;8.40;33.80
18690;DHT22;9782;52.930;15.562;2023-04-01T10:02:26;8.40;10.00
18690;DHT22;9782;52.930;15.562;2023-04-01T10:05:45;8.40;1.00
18690;DHT22;9782;52.930;15.562;2023-04-01T10:08:33;8.40;1.00
18690;DHT22;9782;52.930;15.562;2023-04-01T10:11:27;8.40;1.00
18690;DHT22;9782;52.930;15.562;2023-04-01T10:14:34;8.40;1.00
18690;DHT22;9782;52.930;15.562;2023-04-01T10:17:26;8.40;1.00
18690;DHT22;9782;52.930;15.562;2023-04-01T10:20:17;8.40;1.00
18690;DHT22;9782;52.930;15.562;2023-04-01T10:35:27;8.60;1.00
18690;DHT22;9782;52.930;15.562;2023-04-01T10:38:19;8.70;1.00
18690;DHT22;9782;52.930;15.562;2023-04-01T10:41:03;8.70;1.00
18690;DHT22;9782;52.930;15.562;2023-04-01T10:44:04;8.80;1.00
18690;DHT22;9782;52.930;15.562;2023-04-01T10:47:00;8.80;1.00
18690;DHT22;9782;52.930;15.562;2023-04-01T10:50:08;9.00;1.00
18690;DHT22;9782;52.930;15.562;2023-04-01T10:56:22;9.30;1.00
18690;DHT22;9782;52.930;15.562;2023-04-01T10:59:28;9.30;66.10
18690;DHT22;9782;52.930;15.562;2023-04-01T11:02:30;9.50;1.00
18690;DHT22;9782;52.930;15.562;2023-04-01T11:05:42;9.70;1.00
18690;DHT22;9782;52.930;15.562;2023-04-01T11:08:55;9.70;99.90
18690;DHT22;9782;52.930;15.562;2023-04-01T11:14:59;9.50;22.50
18690;DHT22;9782;52.930;15.562;2023-04-01T11:23:46;9.40;99.90
18690;DHT22;9782;52.930;15.562;2023-04-01T11:26:27;9.40;99.90
18690;DHT22;9782;52.930;15.562;2023-04-01T11:29:27;9.40;99.90
18690;DHT22;9782;52.930;15.562;2023-04-01T11:32:04;9.40;1.00
18690;DHT22;9782;52.930;15.562;2023-04-01T11:34:48;9.40;99.90
18690;DHT22;9782;52.930;15.562;2023-04-01T11:37:31;9.50;99.90
18690;DHT22;9782;52.930;15.562;2023-04-01T11:40:08;9.50;1.00
18690;DHT22;9782;52.930;15.562;2023-04-01T11:42:45;9.40;1.00
18690;DHT22;9782;52.930;15.562;2023-04-01T11:45:23;9.40;1.00
18690;DHT22;9782;52.930;15.562;2023-04-01T11:48:17;9.40;1.00
18690;DHT22;9782;52.930;15.562;2023-04-01T11:51:21;9.40;1.00
18690;DHT22;9782;52.930;15.562;2023-04-01T11:53:58;9.30;1.00
18690;DHT22;9782;52.930;15.562;2023-04-01T11:56:51;9.30;1.00
18690;DHT22;9782;52.930;15.562;2023-04-01T12:02:37;9.20;99.90
18690;DHT22;9782;52.930;15.562;2023-04-01T12:05:29;9.20;99.90
18690;DHT22;9782;52.930;15.562;2023-04-01T12:08:08;9.20;99.90
18690;DHT22;9782;52.930;15.562;2023-04-01T12:10:39;9.20;32.00
18690;DHT22;9782;52.930;15.562;2023-04-01T12:13:17;9.20;56.40
18690;DHT22;9782;52.930;15.562;2023-04-01T12:15:56;9.30;99.90
18690;DHT22;9782;52.930;15.562;2023-04-01T12:18:32;9.40;1.00
18690;DHT22;9782;52.930;15.562;2023-04-01T12:21:03;9.40;1.00
18690;DHT22;9782;52.930;15.562;2023-04-01T12:24:02;9.40;1.00
18690;DHT22;9782;52.930;15.562;2023-04-01T12:26:51;9.40;1.00
18690;DHT22;9782;52.930;15.562;2023-04-01T12:29:47;9.40;1.00
18690;DHT22;9782;52.930;15.562;2023-04-01T12:32:21;9.50;1.00
18690;DHT22;9782;52.930;15.562;2023-04-01T12:35:01;9.60;1.00
18690;DHT22;9782;52.930;15.562;2023-04-01T12:37:38;9.60;99.90
18690;DHT22;9782;52.930;15.562;2023-04-01T12:40:23;9.60;99.90
18690;DHT22;9782;52.930;15.562;2023-04-01T12:43:05;9.60;99.90
18690;DHT22;9782;52.930;15.562;2023-04-01T12:45:38;9.60;99.90
18690;DHT22;9782;52.930;15.562;2023-04-01T12:48:27;9.60;82.10
18690;DHT22;9782;52.930;15.562;2023-04-01T12:51:31;9.60;99.90
18690;DHT22;9782;52.930;15.562;2023-04-01T12:54:43;9.50;99.90
18690;DHT22;9782;52.930;15.562;2023-04-01T12:57:25;9.50;99.90
18690;DHT22;9782;52.930;15.562;2023-04-01T13:00:08;9.60;99.90
18690;DHT22;9782;52.930;15.562;2023-04-01T13:02:48;9.70;58.70
18690;DHT22;9782;52.930;15.562;2023-04-01T13:05:42;9.70;55.40
18690;DHT22;9782;52.930;15.562;2023-04-01T13:08:27;9.70;99.20
18690;DHT22;9782;52.930;15.562;2023-04-01T13:11:07;9.60;99.90
18690;DHT22;9782;52.930;15.562;2023-04-01T13:13:48;9.60;99.90
18690;DHT22;9782;52.930;15.562;2023-04-01T13:16:21;9.70;1.00
18690;DHT22;9782;52.930;15.562;2023-04-01T13:19:00;9.70;1.00
18690;DHT22;9782;52.930;15.562;2023-04-01T13:21:38;9.60;1.00
18690;DHT22;9782;52.930;15.562;2023-04-01T13:24:26;9.60;1.00
18690;DHT22;9782;52.930;15.562;2023-04-01T13:27:03;9.60;1.00
18690;DHT22;9782;52.930;15.562;2023-04-01T13:29:36;9.60;1.00
18690;DHT22;9782;52.930;15.562;2023-04-01T13:32:20;9.50;1.00
18690;DHT22;9782;52.930;15.562;2023-04-01T13:34:59;9.50;1.00
18690;DHT22;9782;52.930;15.562;2023-04-01T13:37:47;9.60;1.00
18690;DHT22;9782;52.930;15.562;2023-04-01T13:40:36;9.70;1.00
18690;DHT22;9782;52.930;15.562;2023-04-01T13:43:11;9.60;99.90
18690;DHT22;9782;52.930;15.562;2023-04-01T13:45:53;9.60;99.90
18690;DHT22;9782;52.930;15.562;2023-04-01T13:52:00;9.60;1.00
18690;DHT22;9782;52.930;15.562;2023-04-01T13:57:42;9.70;99.90
18690;DHT22;9782;52.930;15.562;2023-04-01T14:00:22;9.90;99.90
18690;DHT22;9782;52.930;15.562;2023-04-01T14:03:10;9.90;99.90
18690;DHT22;9782;52.930;15.562;2023-04-01T14:05:51;9.80;88.70
18690;DHT22;9782;52.930;15.562;2023-04-01T14:08:34;9.80;82.60
18690;DHT22;9782;52.930;15.562;2023-04-01T14:11:12;9.70;1.00
18690;DHT22;9782;52.930;15.562;2023-04-01T14:13:47;9.70;99.90
18690;DHT22;9782;52.930;15.562;2023-04-01T14:16:55;9.80;99.90
18690;DHT22;9782;52.930;15.562;2023-04-01T14:19:49;9.80;46.60
18690;DHT22;9782;52.930;15.562;2023-04-01T14:22:24;9.80;1.00
18690;DHT22;9782;52.930;15.562;2023-04-01T14:25:03;9.80;1.00
18690;DHT22;9782;52.930;15.562;2023-04-01T14:27:42;9.80;1.00
18690;DHT22;9782;52.930;15.562;2023-04-01T14:30:33;9.70;1.00
18690;DHT22;9782;52.930;15.562;2023-04-01T14:33:11;9.60;1.00
18690;DHT22;9782;52.930;15.562;2023-04-01T14:35:49;9.60;1.00
18690;DHT22;9782;52.930;15.562;2023-04-01T14:38:46;9.50;1.00
18690;DHT22;9782;52.930;15.562;2023-04-01T14:41:21;9.50;1.00
18690;DHT22;9782;52.930;15.562;2023-04-01T14:44:23;9.40;1.00
18690;DHT22;9782;52.930;15.562;2023-04-01T14:47:25;9.30;1.00
18690;DHT22;9782;52.930;15.562;2023-04-01T14:50:02;9.20;1.00
18690;DHT22;9782;52.930;15.562;2023-04-01T14:52:32;9.10;1.00
18690;DHT22;9782;52.930;15.562;2023-04-01T14:55:01;9.10;1.00
18690;DHT22;9782;52.930;15.562;2023-04-01T14:57:30;9.00;1.00
18690;DHT22;9782;52.930;15.562;2023-04-01T15:00:01;9.00;1.00
18690;DHT22;9782;52.930;15.562;2023-04-01T15:02:46;8.90;1.00
18690;DHT22;9782;52.930;15.562;2023-04-01T15:05:25;8.80;1.00
18690;DHT22;9782;52.930;15.562;2023-04-01T15:08:02;8.70;1.00
18690;DHT22;9782;52.930;15.562;2023-04-01T15:11:02;8.70;1.00
18690;DHT22;9782;52.930;15.562;2023-04-01T15:13:54;8.60;1.00
18690;DHT22;9782;52.930;15.562;2023-04-01T15:16:29;8.60;1.00
18690;DHT22;9782;52.930;15.562;2023-04-01T15:19:12;8.60;1.00
18690;DHT22;9782;52.930;15.562;2023-04-01T15:21:55;8.60;1.00
18690;DHT22;9782;52.930;15.562;2023-04-01T15:24:27;8.50;1.00
18690;DHT22;9782;52.930;15.562;2023-04-01T15:27:10;8.40;1.00
18690;DHT22;9782;52.930;15.562;2023-04-01T15:30:02;8.40;1.00
18690;DHT22;9782;52.930;15.562;2023-04-01T15:32:39;8.30;1.00
18690;DHT22;9782;52.930;15.562;2023-04-01T15:35:19;8.20;1.00
18690;DHT22;9782;52.930;15.562;2023-04-01T15:37:54;8.20;1.00
18690;DHT22;9782;52.930;15.562;2023-04-01T15:40:26;8.10;26.60
18690;DHT22;9782;52.930;15.562;2023-04-01T15:43:05;8.10;85.70
18690;DHT22;9782;52.930;15.562;2023-04-01T15:45:43;8.00;99.90
18690;DHT22;9782;52.930;15.562;2023-04-01T15:48:24;8.00;99.90
18690;DHT22;9782;52.930;15.562;2023-04-01T15:51:11;7.90;99.90
18690;DHT22;9782;52.930;15.562;2023-04-01T15:54:11;7.80;99.90
18690;DHT22;9782;52.930;15.562;2023-04-01T15:56:52;7.80;38.50
18690;DHT22;9782;52.930;15.562;2023-04-01T15:59:41;7.70;54.50
18690;DHT22;9782;52.930;15.562;2023-04-01T16:02:18;7.60;99.90
18690;DHT22;9782;52.930;15.562;2023-04-01T16:04:54;7.50;99.90
18690;DHT22;9782;52.930;15.562;2023-04-01T16:07:36;7.50;99.90
18690;DHT22;9782;52.930;15.562;2023-04-01T16:10:24;7.40;99.90
18690;DHT22;9782;52.930;15.562;2023-04-01T16:13:04;7.40;99.90
18690;DHT22;9782;52.930;15.562;2023-04-01T16:15:46;7.40;99.90
18690;DHT22;9782;52.930;15.562;2023-04-01T16:18:39;7.40;99.90
18690;DHT22;9782;52.930;15.562;2023-04-01T16:21:14;7.40;99.90
18690;DHT22;9782;52.930;15.562;2023-04-01T16:23:53;7.40;99.90
18690;DHT22;9782;52.930;15.562;2023-04-01T16:26:26;7.30;99.90
18690;DHT22;9782;52.930;15.562;2023-04-01T16:29:00;7.20;99.90
18690;DHT22;9782;52.930;15.562;2023-04-01T16:31:34;7.20;99.90
18690;DHT22;9782;52.930;15.562;2023-04-01T16:34:08;7.10;99.90
18690;DHT22;9782;52.930;15.562;2023-04-01T16:36:41;7.00;99.90
18690;DHT22;9782;52.930;15.562;2023-04-01T16:39:19;7.00;99.90
18690;DHT22;9782;52.930;15.562;2023-04-01T16:41:51;6.90;99.90
18690;DHT22;9782;52.930;15.562;2023-04-01T16:44:21;6.80;99.90
18690;DHT22;9782;52.930;15.562;2023-04-01T16:46:51;6.80;99.90
18690;DHT22;9782;52.930;15.562;2023-04-01T16:49:30;6.80;99.90
18690;DHT22;9782;52.930;15.562;2023-04-01T16:52:12;6.80;1.00
18690;DHT22;9782;52.930;15.562;2023-04-01T16:54:46;6.80;99.90
18690;DHT22;9782;52.930;15.562;2023-04-01T16:57:20;6.70;1.00
18690;DHT22;9782;52.930;15.562;2023-04-01T16:59:55;6.70;1.00
18690;DHT22;9782;52.930;15.562;2023-04-01T17:02:26;6.60;1.00
18690;DHT22;9782;52.930;15.562;2023-04-01T17:05:00;6.60;1.00
18690;DHT22;9782;52.930;15.562;2023-04-01T17:07:40;6.50;99.90
18690;DHT22;9782;52.930;15.562;2023-04-01T17:10:33;6.50;99.90
18690;DHT22;9782;52.930;15.562;2023-04-01T17:13:34;6.40;1.00
18690;DHT22;9782;52.930;15.562;2023-04-01T17:16:14;6.40;1.00
18690;DHT22;9782;52.930;15.562;2023-04-01T17:18:50;6.30;1.00
18690;DHT22;9782;52.930;15.562;2023-04-01T17:21:25;6.30;1.00
18690;DHT22;9782;52.930;15.562;2023-04-01T17:24:00;6.30;1.00
18690;DHT22;9782;52.930;15.562;2023-04-01T17:26:39;6.20;1.00
18690;DHT22;9782;52.930;15.562;2023-04-01T17:29:14;6.20;1.00
18690;DHT22;9782;52.930;15.562;2023-04-01T17:31:46;6.20;1.00
18690;DHT22;9782;52.930;15.562;2023-04-01T17:34:44;6.20;1.00
18690;DHT22;9782;52.930;15.562;2023-04-01T17:37:30;6.10;1.00
18690;DHT22;9782;52.930;15.562;2023-04-01T17:40:15;6.10;99.90
18690;DHT22;9782;52.930;15.562;2023-04-01T17:42:52;6.10;99.90
18690;DHT22;9782;52.930;15.562;2023-04-01T17:45:26;6.00;99.90
18690;DHT22;9782;52.930;15.562;2023-04-01T17:48:01;6.00;99.90
18690;DHT22;9782;52.930;15.562;2023-04-01T17:50:44;6.00;99.90
18690;DHT22;9782;52.930;15.562;2023-04-01T17:53:31;6.00;99.90
18690;DHT22;9782;52.930;15.562;2023-04-01T17:56:08;6.00;99.90
18690;DHT22;9782;52.930;15.562;2023-04-01T17:58:45;6.00;99.90
18690;DHT22;9782;52.930;15.562;2023-04-01T18:01:29;6.00;99.90
18690;DHT22;9782;52.930;15.562;2023-04-01T18:07:10;5.90;99.90
18690;DHT22;9782;52.930;15.562;2023-04-01T18:09:47;5.90;99.90
18690;DHT22;9782;52.930;15.562;2023-04-01T18:12:24;5.90;1.00
18690;DHT22;9782;52.930;15.562;2023-04-01T18:15:13;5.90;99.90
18690;DHT22;9782;52.930;15.562;2023-04-01T18:17:52;5.90;99.90
18690;DHT22;9782;52.930;15.562;2023-04-01T18:20:31;5.90;99.90
18690;DHT22;9782;52.930;15.562;2023-04-01T18:23:03;5.90;99.90
18690;DHT22;9782;52.930;15.562;2023-04-01T18:25:34;5.90;99.90
18690;DHT22;9782;52.930;15.562;2023-04-01T18:28:22;5.90;99.90
18690;DHT22;9782;52.930;15.562;2023-04-01T18:30:54;5.90;99.90
18690;DHT22;9782;52.930;15.562;2023-04-01T18:33:28;5.90;99.90
18690;DHT22;9782;52.930;15.562;2023-04-01T18:36:03;5.80;99.90
18690;DHT22;9782;52.930;15.562;2023-04-01T18:38:36;5.80;99.90
18690;DHT22;9782;52.930;15.562;2023-04-01T18:41:13;5.90;99.90
18690;DHT22;9782;52.930;15.562;2023-04-01T18:43:48;5.80;99.90
18690;DHT22;9782;52.930;15.562;2023-04-01T18:46:29;5.80;99.90
18690;DHT22;9782;52.930;15.562;2023-04-01T18:49:05;5.80;98.50
18690;DHT22;9782;52.930;15.562;2023-04-01T18:51:39;5.70;99.90
18690;DHT22;9782;52.930;15.562;2023-04-01T18:54:15;5.70;99.90
18690;DHT22;9782;52.930;15.562;2023-04-01T18:56:46;5.70;99.90
18690;DHT22;9782;52.930;15.562;2023-04-01T18:59:18;5.70;99.90
18690;DHT22;9782;52.930;15.562;2023-04-01T19:01:59;5.70;99.90
18690;DHT22;9782;52.930;15.562;2023-04-01T19:04:31;5.70;99.90
18690;DHT22;9782;52.930;15.562;2023-04-01T19:07:01;5.60;99.90
18690;DHT22;9782;52.930;15.562;2023-04-01T19:09:31;5.60;99.90
18690;DHT22;9782;52.930;15.562;2023-04-01T19:12:20;5.60;99.90
18690;DHT22;9782;52.930;15.562;2023-04-01T19:15:09;5.60;99.90
18690;DHT22;9782;52.930;15.562;2023-04-01T19:17:54;5.60;99.90
18690;DHT22;9782;52.930;15.562;2023-04-01T19:20:29;5.50;99.90
18690;DHT22;9782;52.930;15.562;2023-04-01T19:25:59;5.50;99.90
18690;DHT22;9782;52.930;15.562;2023-04-01T19:28:37;5.40;99.90
18690;DHT22;9782;52.930;15.562;2023-04-01T19:31:21;5.40;99.90
18690;DHT22;9782;52.930;15.562;2023-04-01T19:34:03;5.40;99.90
18690;DHT22;9782;52.930;15.562;2023-04-01T19:36:39;5.40;99.90
18690;DHT22;9782;52.930;15.562;2023-04-01T19:39:25;5.40;99.90
18690;DHT22;9782;52.930;15.562;2023-04-01T19:42:00;5.40;99.90
18690;DHT22;9782;52.930;15.562;2023-04-01T19:44:37;5.40;99.90
18690;DHT22;9782;52.930;15.562;2023-04-01T19:47:14;5.40;99.90
18690;DHT22;9782;52.930;15.562;2023-04-01T19:49:55;5.40;99.90
18690;DHT22;9782;52.930;15.562;2023-04-01T19:52:31;5.30;99.90
18690;DHT22;9782;52.930;15.562;2023-04-01T19:55:06;5.30;99.90
18690;DHT22;9782;52.930;15.562;2023-04-01T19:57:44;5.30;99.90
18690;DHT22;9782;52.930;15.562;2023-04-01T20:00:18;5.20;99.90
18690;DHT22;9782;52.930;15.562;2023-04-01T20:02:58;5.20;99.90
18690;DHT22;9782;52.930;15.562;2023-04-01T20:05:50;5.20;99.90
18690;DHT22;9782;52.930;15.562;2023-04-01T20:08:28;5.20;99.90
18690;DHT22;9782;52.930;15.562;2023-04-01T20:11:08;5.10;99.90
18690;DHT22;9782;52.930;15.562;2023-04-01T20:13:45;5.10;99.90
18690;DHT22;9782;52.930;15.562;2023-04-01T20:16:14;5.10;99.90
18690;DHT22;9782;52.930;15.562;2023-04-01T20:18:47;5.10;99.90
18690;DHT22;9782;52.930;15.562;2023-04-01T20:21:28;5.10;99.90
18690;DHT22;9782;52.930;15.562;2023-04-01T20:24:00;5.10;99.90
18690;DHT22;9782;52.930;15.562;2023-04-01T20:26:32;5.10;99.90
18690;DHT22;9782;52.930;15.562;2023-04-01T20:31:59;5.00;99.90
18690;DHT22;9782;52.930;15.562;2023-04-01T20:34:51;5.00;99.90
18690;DHT22;9782;52.930;15.562;2023-04-01T20:37:36;5.00;99.90
18690;DHT22;9782;52.930;15.562;2023-04-01T20:40:27;5.00;99.90
18690;DHT22;9782;52.930;15.562;2023-04-01T20:43:29;5.00;99.90
18690;DHT22;9782;52.930;15.562;2023-04-01T20:46:01;5.00;99.90
18690;DHT22;9782;52.930;15.562;2023-04-01T20:48:46;5.00;99.90
18690;DHT22;9782;52.930;15.562;2023-04-01T20:51:22;5.00;99.90
18690;DHT22;9782;52.930;15.562;2023-04-01T20:53:58;5.00;14.20
18690;DHT22;9782;52.930;15.562;2023-04-01T20:56:41;5.00;5.40
18690;DHT22;9782;52.930;15.562;2023-04-01T20:59:45;4.90;1.00
18690;DHT22;9782;52.930;15.562;2023-04-01T21:02:28;4.90;1.00
18690;DHT22;9782;52.930;15.562;2023-04-01T21:05:28;4.90;1.00
18690;DHT22;9782;52.930;15.562;2023-04-01T21:08:04;4.90;1.00
18690;DHT22;9782;52.930;15.562;2023-04-01T21:10:40;4.80;1.00
18690;DHT22;9782;52.930;15.562;2023-04-01T21:13:20;4.80;1.00
18690;DHT22;9782;52.930;15.562;2023-04-01T21:16:00;4.80;1.00
18690;DHT22;9782;52.930;15.562;2023-04-01T21:18:47;4.80;1.00
18690;DHT22;9782;52.930;15.562;2023-04-01T21:24:34;4.80;1.00
18690;DHT22;9782;52.930;15.562;2023-04-01T21:27:12;4.80;1.00
18690;DHT22;9782;52.930;15.562;2023-04-01T21:29:53;4.80;1.00
18690;DHT22;9782;52.930;15.562;2023-04-01T21:32:43;4.70;1.00
18690;DHT22;9782;52.930;15.562;2023-04-01T21:35:26;4.70;1.00
18690;DHT22;9782;52.930;15.562;2023-04-01T21:38:01;4.60;99.90
18690;DHT22;9782;52.930;15.562;2023-04-01T21:41:01;4.60;99.90
18690;DHT22;9782;52.930;15.562;2023-04-01T21:44:00;4.50;99.90
18690;DHT22;9782;52.930;15.562;2023-04-01T21:49:50;4.50;99.90
18690;DHT22;9782;52.930;15.562;2023-04-01T21:52:43;4.50;99.90
18690;DHT22;9782;52.930;15.562;2023-04-01T21:55:41;4.50;99.90
18690;DHT22;9782;52.930;15.562;2023-04-01T22:01:31;4.50;99.90
18690;DHT22;9782;52.930;15.562;2023-04-01T22:04:16;4.50;99.90
18690;DHT22;9782;52.930;15.562;2023-04-01T22:06:51;4.50;99.90
18690;DHT22;9782;52.930;15.562;2023-04-01T22:09:24;4.40;99.90
18690;DHT22;9782;52.930;15.562;2023-04-01T22:11:57;4.50;99.90
18690;DHT22;9782;52.930;15.562;2023-04-01T22:14:32;4.50;99.90
18690;DHT22;9782;52.930;15.562;2023-04-01T22:17:05;4.40;99.90
18690;DHT22;9782;52.930;15.562;2023-04-01T22:19:44;4.40;99.90
18690;DHT22;9782;52.930;15.562;2023-04-01T22:22:21;4.40;99.90
18690;DHT22;9782;52.930;15.562;2023-04-01T22:24:56;4.40;99.90
18690;DHT22;9782;52.930;15.562;2023-04-01T22:27:32;4.40;99.90
18690;DHT22;9782;52.930;15.562;2023-04-01T22:30:12;4.40;99.90
18690;DHT22;9782;52.930;15.562;2023-04-01T22:32:45;4.40;99.90
18690;DHT22;9782;52.930;15.562;2023-04-01T22:35:27;4.40;99.90
18690;DHT22;9782;52.930;15.562;2023-04-01T22:38:07;4.40;99.90
18690;DHT22;9782;52.930;15.562;2023-04-01T22:40:40;4.40;1.00
18690;DHT22;9782;52.930;15.562;2023-04-01T22:43:10;4.30;1.00
18690;DHT22;9782;52.930;15.562;2023-04-01T22:45:53;4.30;1.00
18690;DHT22;9782;52.930;15.562;2023-04-01T22:48:29;4.30;1.00
18690;DHT22;9782;52.930;15.562;2023-04-01T22:51:03;4.30;1.00
18690;DHT22;9782;52.930;15.562;2023-04-01T22:53:46;4.50;1.00
18690;DHT22;9782;52.930;15.562;2023-04-01T22:56:18;4.20;1.00
18690;DHT22;9782;52.930;15.562;2023-04-01T22:58:50;4.20;1.00
18690;DHT22;9782;52.930;15.562;2023-04-01T23:01:21;4.30;1.00
18690;DHT22;9782;52.930;15.562;2023-04-01T23:03:52;4.20;1.00
18690;DHT22;9782;52.930;15.562;2023-04-01T23:06:22;4.30;1.00
18690;DHT22;9782;52.930;15.562;2023-04-01T23:09:02;4.30;1.00
18690;DHT22;9782;52.930;15.562;2023-04-01T23:11:35;4.30;1.00
18690;DHT22;9782;52.930;15.562;2023-04-01T23:17:12;4.30;1.00
18690;DHT22;9782;52.930;15.562;2023-04-01T23:19:47;4.20;1.00
18690;DHT22;9782;52.930;15.562;2023-04-01T23:22:23;4.30;1.00
18690;DHT22;9782;52.930;15.562;2023-04-01T23:24:54;4.20;1.00
18690;DHT22;9782;52.930;15.562;2023-04-01T23:27:28;4.20;1.00
18690;DHT22;9782;52.930;15.562;2023-04-01T23:29:57;4.20;1.00
18690;DHT22;9782;52.930;15.562;2023-04-01T23:32:25;4.30;1.00
18690;DHT22;9782;52.930;15.562;2023-04-01T23:34:55;4.30;1.00
18690;DHT22;9782;52.930;15.562;2023-04-01T23:37:23;4.20;1.00
18690;DHT22;9782;52.930;15.562;2023-04-01T23:39:52;4.30;99.90
18690;DHT22;9782;52.930;15.562;2023-04-01T23:42:23;4.20;99.90
18690;DHT22;9782;52.930;15.562;2023-04-01T23:44:53;4.20;1.00
18690;DHT22;9782;52.930;15.562;2023-04-01T23:47:23;4.20;99.90
18690;DHT22;9782;52.930;15.562;2023-04-01T23:49:54;4.30;99.90
18690;DHT22;9782;52.930;15.562;2023-04-01T23:52:24;4.30;99.90
18690;DHT22;9782;52.930;15.562;2023-04-01T23:54:54;4.30;99.90
18690;DHT22;9782;52.930;15.562;2023-04-01T23:57:26;4.30;99.90
